createdAt,value
2023-03-15T00:00:06.610Z,7.6
2023-03-15T00:05:09.585Z,18.5
2023-03-15T00:10:06.629Z,8.7
2023-03-15T00:15:07.076Z,17.2
2023-03-15T00:20:07.219Z,9.7
2023-03-15T00:25:07.180Z,11.1
2023-03-15T00:30:06.341Z,10.8
2023-03-15T00:35:06.468Z,9.3
2023-03-15T00:40:06.346Z,11.7
2023-03-15T00:45:06.574Z,12.2
2023-03-15T00:50:06.678Z,10.3
2023-03-15T00:55:06.709Z,9.3
2023-03-15T01:00:06.945Z,8.5
2023-03-15T01:05:06.887Z,8.1
2023-03-15T01:10:06.573Z,11.7
2023-03-15T01:15:06.578Z,5.8
2023-03-15T01:20:06.819Z,16.1
2023-03-15T01:25:06.939Z,8.2
2023-03-15T01:30:07.071Z,17
2023-03-15T01:35:07.164Z,7.8
2023-03-15T01:40:07.256Z,16.7
2023-03-15T01:45:06.276Z,20
2023-03-15T01:50:06.724Z,6.3
2023-03-15T01:55:06.885Z,20.2
2023-03-15T02:00:07.083Z,7.9
2023-03-15T02:05:06.970Z,8.3
2023-03-15T02:10:06.375Z,7.8
2023-03-15T02:15:07.093Z,9.3
2023-03-15T02:20:06.357Z,7.1
2023-03-15T02:25:07.163Z,6.8
2023-03-15T02:30:06.735Z,7.8
2023-03-15T02:35:06.739Z,6.1
2023-03-15T02:40:07.029Z,6.1
2023-03-15T02:45:07.058Z,5.1
2023-03-15T02:50:07.228Z,5.3
2023-03-15T02:55:06.462Z,7.9
2023-03-15T03:00:06.814Z,5.5
2023-03-15T03:05:06.576Z,8.8
2023-03-15T03:10:06.682Z,9.6
2023-03-15T03:15:06.855Z,5.8
2023-03-15T03:20:06.774Z,9.6
2023-03-15T03:25:07.003Z,6.5
2023-03-15T03:30:07.221Z,9.7
2023-03-15T03:35:06.392Z,9.1
2023-03-15T03:40:06.451Z,7.3
2023-03-15T03:45:06.578Z,11.9
2023-03-15T03:50:06.260Z,7.8
2023-03-15T03:55:06.736Z,11.9
2023-03-15T04:00:06.422Z,5.2
2023-03-15T04:05:06.510Z,7.5
2023-03-15T04:10:06.858Z,11.5
2023-03-15T04:15:07.109Z,11.3
2023-03-15T04:20:06.618Z,8.7
2023-03-15T04:25:06.661Z,12.4
2023-03-15T04:30:06.827Z,8.8
2023-03-15T04:35:06.998Z,12.5
2023-03-15T04:40:06.673Z,7.4
2023-03-15T04:45:06.714Z,9.8
2023-03-15T04:50:06.900Z,7.3
2023-03-15T04:55:07.011Z,7.3
2023-03-15T05:00:06.651Z,12.5
2023-03-15T05:05:06.465Z,10.6
2023-03-15T05:10:06.606Z,7.8
2023-03-15T05:15:06.638Z,11.1
2023-03-15T05:20:06.827Z,16.7
2023-03-15T05:25:06.839Z,8.7
2023-03-15T05:30:06.830Z,9.3
2023-03-15T05:35:06.731Z,11.6
2023-03-15T05:40:06.863Z,13.5
2023-03-15T05:45:06.726Z,9.8
2023-03-15T05:50:07.046Z,9.3
2023-03-15T05:55:07.146Z,10.3
2023-03-15T06:00:06.323Z,15.4
2023-03-15T06:05:06.342Z,13.7
2023-03-15T06:10:06.521Z,10.3
2023-03-15T06:15:06.761Z,12.2
2023-03-15T06:20:06.266Z,22.8
2023-03-15T06:25:06.640Z,16.4
2023-03-15T06:30:06.708Z,14.2
2023-03-15T06:35:07.036Z,14
2023-03-15T06:40:07.204Z,17.1
2023-03-15T06:45:06.249Z,14
2023-03-15T06:50:06.398Z,14.7
2023-03-15T06:55:07.088Z,20.1
2023-03-15T07:00:06.394Z,10.5
2023-03-15T07:05:06.488Z,17.9
2023-03-15T07:10:06.726Z,25
2023-03-15T07:15:06.981Z,17.8
2023-03-15T07:20:07.166Z,25.2
2023-03-15T07:25:06.795Z,31.5
2023-03-15T07:30:06.929Z,22.9
2023-03-15T07:35:06.966Z,35.9
2023-03-15T07:40:06.620Z,45.9
2023-03-15T07:45:06.805Z,20.4
2023-03-15T07:50:06.891Z,16.7
2023-03-15T07:55:07.064Z,13.5
2023-03-15T08:00:07.346Z,11.8
2023-03-15T08:05:06.320Z,19.6
2023-03-15T08:10:06.524Z,16.7
2023-03-15T08:15:06.686Z,8
2023-03-15T08:20:06.808Z,9.9
2023-03-15T08:25:06.991Z,14.3
2023-03-15T08:30:07.111Z,12.5
2023-03-15T08:35:06.310Z,8.8
2023-03-15T08:40:06.604Z,12.9
2023-03-15T08:45:06.657Z,7.3
2023-03-15T08:50:06.559Z,9.3
2023-03-15T08:55:06.689Z,11.2
2023-03-15T09:00:06.965Z,9.7
2023-03-15T09:05:06.792Z,7
2023-03-15T09:10:07.168Z,8.2
2023-03-15T09:15:06.294Z,6.7
2023-03-15T09:20:06.582Z,7.6
2023-03-15T09:25:06.716Z,6.8
2023-03-15T09:30:06.809Z,13.2
2023-03-15T09:35:06.335Z,9.7
2023-03-15T09:40:06.568Z,34.9
2023-03-15T09:45:06.522Z,23.5
2023-03-15T09:50:07.145Z,10.5
2023-03-15T09:55:07.113Z,16.6
2023-03-15T10:00:06.524Z,8.7
2023-03-15T10:05:06.745Z,12.3
2023-03-15T10:10:06.345Z,6.4
2023-03-15T10:15:06.431Z,11.3
2023-03-15T10:20:06.640Z,8.9
2023-03-15T10:25:06.298Z,12.4
2023-03-15T10:30:06.620Z,8.1
2023-03-15T10:35:06.669Z,18.9
2023-03-15T10:40:06.691Z,10
2023-03-15T10:45:06.264Z,4.1
2023-03-15T10:50:06.530Z,9
2023-03-15T10:55:06.834Z,9.4
2023-03-15T11:00:06.697Z,5.6
2023-03-15T11:05:06.654Z,7.1
2023-03-15T11:10:06.932Z,8
2023-03-15T11:15:07.057Z,7.8
2023-03-15T11:20:06.283Z,6.3
2023-03-15T11:25:06.518Z,7
2023-03-15T11:30:06.655Z,7.4
2023-03-15T11:35:06.714Z,16.2
2023-03-15T11:40:06.294Z,10.6
2023-03-15T11:45:06.334Z,9.9
2023-03-15T11:50:06.426Z,10.1
2023-03-15T11:55:06.591Z,16
2023-03-15T12:00:07.053Z,14.7
2023-03-15T12:05:07.084Z,11.4
2023-03-15T12:10:06.993Z,6.9
2023-03-15T12:15:07.243Z,6.2
2023-03-15T12:20:06.921Z,15.7
2023-03-15T12:25:06.791Z,7.4
2023-03-15T12:30:06.772Z,7.7
2023-03-15T12:35:06.996Z,12.4
2023-03-15T12:40:06.965Z,11.3
2023-03-15T12:45:06.398Z,7
2023-03-15T12:50:06.986Z,17.2
2023-03-15T12:55:06.362Z,16.8
2023-03-15T13:00:07.260Z,7.8
2023-03-15T13:05:06.526Z,7.8
2023-03-15T13:10:06.575Z,10.1
2023-03-15T13:15:07.087Z,8.2
2023-03-15T13:20:06.398Z,10.2
2023-03-15T13:25:06.486Z,14.8
2023-03-15T13:30:07.069Z,10.7
2023-03-15T13:35:06.581Z,5.6
2023-03-15T13:40:07.125Z,6.3
2023-03-15T13:45:07.155Z,22.1
2023-03-15T13:50:06.464Z,32.2
2023-03-15T13:55:06.461Z,13.8
2023-03-15T14:00:06.791Z,11.4
2023-03-15T14:05:06.745Z,11.4
2023-03-15T14:10:06.580Z,17.6
2023-03-15T14:15:06.469Z,18.1
2023-03-15T14:20:06.952Z,13.2
2023-03-15T14:25:06.558Z,18
2023-03-15T14:30:07.104Z,18.7
2023-03-15T14:35:06.866Z,12.9
2023-03-15T14:40:06.971Z,15.3
2023-03-15T14:45:06.900Z,10
2023-03-15T14:50:07.225Z,9.1
2023-03-15T14:55:06.767Z,7.3
2023-03-15T15:00:07.026Z,11.3
2023-03-15T15:05:06.280Z,11.5
2023-03-15T15:10:06.419Z,14.4
2023-03-15T15:15:06.477Z,26.2
2023-03-15T15:20:06.749Z,39.3
2023-03-15T15:25:06.491Z,28.2
2023-03-15T15:30:06.961Z,36.3
2023-03-15T15:35:06.457Z,38.7
2023-03-15T15:40:07.120Z,70.9
2023-03-15T15:45:06.612Z,31
2023-03-15T15:50:06.661Z,21.9
2023-03-15T15:55:06.818Z,12.9
2023-03-15T16:00:06.721Z,10.7
2023-03-15T16:05:06.814Z,10.6
2023-03-15T16:10:07.074Z,11.1
2023-03-15T16:15:06.410Z,5.8
2023-03-15T16:20:07.043Z,8.1
2023-03-15T16:25:07.134Z,8.1
2023-03-15T16:30:06.595Z,6.6
2023-03-15T16:35:06.846Z,12.7
2023-03-15T16:40:06.300Z,10.5
2023-03-15T16:45:06.725Z,5.9
2023-03-15T16:50:07.003Z,15.3
2023-03-15T16:55:06.674Z,7.9
2023-03-15T17:00:07.055Z,7.4
2023-03-15T17:05:06.964Z,4.5
2023-03-15T17:10:06.448Z,5.7
2023-03-15T17:15:06.916Z,7.5
2023-03-15T17:20:07.028Z,3.9
2023-03-15T17:25:07.214Z,5.7
2023-03-15T17:30:06.364Z,7.9
2023-03-15T17:35:06.871Z,5
2023-03-15T17:40:07.186Z,14.1
2023-03-15T17:45:06.386Z,20.5
2023-03-15T17:50:06.631Z,6.6
2023-03-15T17:55:06.808Z,4.7
2023-03-15T18:00:06.894Z,7.7
2023-03-15T18:05:06.989Z,6.7
2023-03-15T18:10:06.381Z,8.6
2023-03-15T18:15:07.026Z,6.2
2023-03-15T18:20:07.157Z,5.3
2023-03-15T18:25:06.361Z,7.4
2023-03-15T18:30:06.428Z,4.9
2023-03-15T18:35:06.564Z,12.3
2023-03-15T18:40:06.710Z,8.9
2023-03-15T18:45:06.772Z,7.1
2023-03-15T18:50:06.945Z,6
2023-03-15T18:55:07.056Z,5.4
2023-03-15T19:00:07.306Z,4.3
2023-03-15T19:05:07.041Z,4.4
2023-03-15T19:10:07.216Z,7.4
2023-03-15T19:15:06.683Z,3.8
2023-03-15T19:20:06.924Z,4.1
2023-03-15T19:25:07.079Z,5.4
2023-03-15T19:30:07.200Z,9.3
2023-03-15T19:35:06.363Z,3.5
2023-03-15T19:40:06.621Z,6.8
2023-03-15T19:45:06.727Z,6.4
2023-03-15T19:50:06.978Z,7.4
2023-03-15T19:55:07.008Z,5.8
2023-03-15T20:00:07.251Z,7.2
2023-03-15T20:05:07.243Z,8.6
2023-03-15T20:10:06.435Z,8.1
2023-03-15T20:15:06.574Z,5.6
2023-03-15T20:20:06.757Z,6.7
2023-03-15T20:25:06.901Z,17
2023-03-15T20:30:07.047Z,13.7
2023-03-15T20:35:07.112Z,4.8
2023-03-15T20:40:06.654Z,2.5
2023-03-15T20:45:06.405Z,4.1
2023-03-15T20:50:06.578Z,4.8
2023-03-15T20:55:06.762Z,3.5
2023-03-15T21:00:06.892Z,7.5
2023-03-15T21:05:06.741Z,4
2023-03-15T21:10:06.862Z,4.6
2023-03-15T21:15:07.152Z,3.4
2023-03-15T21:20:06.374Z,4.9
2023-03-15T21:25:06.619Z,4.4
2023-03-15T21:30:06.832Z,3.8
2023-03-15T21:35:06.960Z,4
2023-03-15T21:40:07.149Z,34.3
2023-03-15T21:45:07.117Z,4.6
2023-03-15T21:50:06.295Z,4.7
2023-03-15T21:55:06.525Z,2.9
2023-03-15T22:00:06.802Z,3.2
2023-03-15T22:05:06.852Z,5
2023-03-15T22:10:07.010Z,1.5
2023-03-15T22:15:07.067Z,5.5
2023-03-15T22:20:06.422Z,4
2023-03-15T22:25:06.473Z,5.3
2023-03-15T22:30:06.569Z,3.2
2023-03-15T22:35:06.711Z,5.6
2023-03-15T22:40:06.856Z,3.7
2023-03-15T22:45:07.033Z,2.3
2023-03-15T22:50:09.515Z,5.3
2023-03-15T22:55:07.232Z,2.6
2023-03-15T23:00:07.020Z,5
2023-03-15T23:05:06.691Z,7.3
2023-03-15T23:10:06.226Z,3.4
2023-03-15T23:15:06.597Z,2.9
2023-03-15T23:20:07.054Z,2
2023-03-15T23:25:06.492Z,5.4
2023-03-15T23:30:06.315Z,3.4
2023-03-15T23:35:06.681Z,3.4
2023-03-15T23:40:07.040Z,2.7
2023-03-15T23:45:06.403Z,2.7
2023-03-15T23:50:06.796Z,2.9
2023-03-15T23:55:06.115Z,2.7
